createdAt,value
2024-03-05T00:00:39.857Z,69.71
2024-03-05T00:03:06.781Z,69.54
2024-03-05T00:05:33.511Z,69.51
2024-03-05T00:08:00.580Z,69.65
2024-03-05T00:10:27.464Z,69.68
2024-03-05T00:12:54.480Z,69.65
2024-03-05T00:15:21.221Z,69.73
2024-03-05T00:17:47.897Z,69.58
2024-03-05T00:20:20.007Z,69.61
2024-03-05T00:22:51.860Z,69.63
2024-03-05T00:25:19.330Z,69.72
2024-03-05T00:27:46.712Z,69.96
2024-03-05T00:30:15.355Z,69.99
2024-03-05T00:32:42.653Z,70.02
2024-03-05T00:35:13.120Z,69.78
2024-03-05T00:37:40.040Z,70.01
2024-03-05T00:40:10.445Z,69.90
2024-03-05T00:42:37.886Z,69.91
2024-03-05T00:45:09.199Z,69.90
2024-03-05T00:47:37.398Z,70.00
2024-03-05T00:50:05.944Z,70.06
2024-03-05T00:52:33.409Z,69.98
2024-03-05T00:55:01.501Z,70.02
2024-03-05T00:57:28.889Z,70.02
2024-03-05T00:59:55.838Z,70.07
2024-03-05T01:02:23.970Z,70.03
2024-03-05T01:04:51.437Z,69.92
2024-03-05T01:07:18.745Z,70.16
2024-03-05T01:09:46.053Z,70.10
2024-03-05T01:12:12.817Z,69.97
2024-03-05T01:14:39.945Z,69.98
2024-03-05T01:17:07.018Z,70.05
2024-03-05T01:19:33.797Z,70.13
2024-03-05T01:22:01.056Z,69.97
2024-03-05T01:24:28.712Z,70.02
2024-03-05T01:26:55.409Z,70.27
2024-03-05T01:29:23.426Z,70.05
2024-03-05T01:31:57.803Z,69.91
2024-03-05T01:34:25.608Z,69.97
2024-03-05T01:36:59.301Z,70.17
2024-03-05T01:39:28.845Z,70.06
2024-03-05T01:41:56.556Z,70.24
2024-03-05T01:44:23.853Z,70.15
2024-03-05T01:46:57.540Z,70.17
2024-03-05T01:49:26.508Z,70.26
2024-03-05T01:51:56.039Z,70.24
2024-03-05T01:54:24.834Z,70.15
2024-03-05T01:56:56.109Z,70.43
2024-03-05T01:59:23.860Z,70.42
2024-03-05T02:01:52.003Z,70.46
2024-03-05T02:04:18.991Z,70.39
2024-03-05T02:06:47.510Z,70.31
2024-03-05T02:09:14.928Z,70.32
2024-03-05T02:11:52.854Z,70.40
2024-03-05T02:14:27.891Z,70.31
2024-03-05T02:16:59.325Z,70.28
2024-03-05T02:19:27.330Z,70.16
2024-03-05T02:22:04.848Z,70.28
2024-03-05T02:24:31.988Z,70.04
2024-03-05T02:27:03.285Z,70.21
2024-03-05T02:29:32.583Z,70.16
2024-03-05T02:31:59.645Z,70.10
2024-03-05T02:34:27.312Z,70.15
2024-03-05T02:36:54.192Z,70.23
2024-03-05T02:39:21.434Z,70.45
2024-03-05T02:41:51.033Z,70.41
2024-03-05T02:44:17.658Z,70.37
2024-03-05T02:46:44.307Z,70.45
2024-03-05T02:49:12.854Z,70.39
2024-03-05T02:51:39.513Z,70.32
2024-03-05T02:54:07.617Z,70.40
2024-03-05T02:56:34.980Z,70.58
2024-03-05T02:59:01.826Z,70.38
2024-03-05T03:01:28.828Z,70.36
2024-03-05T03:03:55.886Z,70.42
2024-03-05T03:06:23.494Z,70.48
2024-03-05T03:08:50.115Z,70.47
2024-03-05T03:11:20.231Z,70.44
2024-03-05T03:13:49.905Z,70.61
2024-03-05T03:17:12.603Z,70.50
2024-03-05T03:19:39.357Z,70.41
2024-03-05T03:22:06.248Z,70.46
2024-03-05T03:24:32.947Z,70.52
2024-03-05T03:26:59.886Z,70.45
2024-03-05T03:29:27.804Z,70.60
2024-03-05T03:31:56.537Z,70.58
2024-03-05T03:34:23.732Z,70.48
2024-03-05T03:36:50.566Z,70.51
2024-03-05T03:39:25.292Z,70.63
2024-03-05T03:41:54.763Z,70.57
2024-03-05T03:44:23.517Z,70.48
2024-03-05T03:46:51.706Z,70.48
2024-03-05T03:49:27.111Z,70.63
2024-03-05T03:51:55.298Z,70.63
2024-03-05T03:54:23.024Z,70.64
2024-03-05T03:56:50.308Z,70.62
2024-03-05T03:59:17.617Z,70.74
2024-03-05T04:01:53.210Z,70.71
2024-03-05T04:04:20.052Z,70.75
2024-03-05T04:06:47.738Z,70.80
2024-03-05T04:09:15.484Z,70.78
2024-03-05T04:11:43.684Z,70.81
2024-03-05T04:14:11.062Z,70.80
2024-03-05T04:16:41.961Z,70.72
2024-03-05T04:19:09.849Z,70.70
2024-03-05T04:21:43.624Z,70.71
2024-03-05T04:24:14.159Z,70.74
2024-03-05T04:26:42.745Z,70.87
2024-03-05T04:29:17.743Z,70.80
2024-03-05T04:31:50.694Z,70.72
2024-03-05T04:34:21.838Z,70.68
2024-03-05T04:36:55.531Z,70.73
2024-03-05T04:39:23.929Z,70.66
2024-03-05T04:41:50.785Z,70.73
2024-03-05T04:44:17.635Z,70.75
2024-03-05T04:46:44.273Z,70.75
2024-03-05T04:49:10.921Z,70.72
2024-03-05T04:51:38.303Z,70.75
2024-03-05T04:54:05.385Z,70.74
2024-03-05T04:56:32.500Z,70.78
2024-03-05T04:58:59.323Z,70.84
2024-03-05T05:01:26.312Z,70.92
2024-03-05T05:03:53.169Z,70.97
2024-03-05T05:06:19.840Z,71.00
2024-03-05T05:08:47.065Z,70.95
2024-03-05T05:11:13.900Z,70.96
2024-03-05T05:13:44.401Z,71.01
2024-03-05T05:16:12.799Z,71.06
2024-03-05T05:18:39.963Z,71.03
2024-03-05T05:21:08.831Z,71.01
2024-03-05T05:23:36.270Z,70.97
2024-03-05T05:26:03.424Z,71.03
2024-03-05T05:28:30.522Z,71.10
2024-03-05T05:30:57.278Z,71.15
2024-03-05T05:33:23.983Z,71.13
2024-03-05T05:35:51.446Z,71.11
2024-03-05T05:38:18.241Z,71.07
2024-03-05T05:40:44.926Z,71.17
2024-03-05T05:43:12.665Z,71.12
2024-03-05T05:45:39.438Z,71.14
2024-03-05T05:48:06.914Z,71.23
2024-03-05T05:50:33.661Z,71.18
2024-03-05T05:53:00.754Z,71.24
2024-03-05T05:55:28.390Z,71.29
2024-03-05T05:57:56.720Z,71.35
2024-03-05T06:00:40.242Z,71.39
2024-03-05T06:03:10.590Z,71.25
2024-03-05T06:05:39.311Z,71.32
2024-03-05T06:08:13.438Z,71.48
2024-03-05T06:10:43.103Z,71.54
2024-03-05T06:13:10.543Z,71.54
2024-03-05T06:15:39.878Z,71.54
2024-03-05T06:18:07.637Z,71.48
2024-03-05T06:20:34.537Z,71.45
2024-03-05T06:23:02.273Z,71.46
2024-03-05T06:25:29.428Z,71.45
2024-03-05T06:27:56.466Z,71.41
2024-03-05T06:30:24.223Z,71.38
2024-03-05T06:32:52.973Z,71.42
2024-03-05T06:35:23.796Z,71.33
2024-03-05T06:37:51.916Z,71.36
2024-03-05T06:40:25.061Z,71.34
2024-03-05T06:42:53.819Z,71.26
2024-03-05T06:45:29.068Z,71.20
2024-03-05T06:48:10.483Z,71.22
2024-03-05T06:50:45.029Z,71.32
2024-03-05T06:53:31.970Z,71.25
2024-03-05T06:56:18.026Z,71.27
2024-03-05T06:58:47.827Z,71.18
2024-03-05T07:01:16.145Z,71.33
2024-03-05T07:03:45.861Z,71.28
2024-03-05T07:06:14.555Z,71.25
2024-03-05T07:08:44.076Z,71.25
2024-03-05T07:11:12.578Z,71.30
2024-03-05T07:13:44.613Z,71.37
2024-03-05T07:16:17.790Z,71.26
2024-03-05T07:18:51.649Z,71.28
2024-03-05T07:21:21.590Z,71.29
2024-03-05T07:23:52.990Z,71.18
2024-03-05T07:39:32.786Z,70.67
2024-03-05T07:41:59.497Z,70.30
2024-03-05T07:44:26.152Z,70.65
2024-03-05T07:46:52.889Z,70.81
2024-03-05T07:49:19.906Z,70.92
2024-03-05T07:51:46.698Z,70.90
2024-03-05T07:54:14.335Z,71.07
2024-03-05T07:56:41.868Z,71.15
2024-03-05T07:59:08.724Z,71.19
2024-03-05T08:01:35.444Z,71.20
2024-03-05T08:04:02.449Z,71.15
2024-03-05T08:06:30.172Z,71.21
2024-03-05T08:08:57.085Z,71.28
2024-03-05T08:11:24.748Z,71.29
2024-03-05T08:13:52.358Z,71.22
2024-03-05T08:16:19.355Z,71.27
2024-03-05T08:18:47.301Z,71.19
2024-03-05T08:21:14.897Z,71.38
2024-03-05T08:23:41.854Z,71.25
2024-03-05T08:26:08.842Z,71.23
2024-03-05T08:28:35.952Z,71.42
2024-03-05T08:31:02.840Z,71.35
2024-03-05T08:33:29.583Z,71.28
2024-03-05T08:35:56.305Z,71.23
2024-03-05T08:38:22.957Z,71.31
2024-03-05T08:40:50.561Z,71.30
2024-03-05T08:43:17.416Z,71.34
2024-03-05T08:45:44.326Z,71.30
2024-03-05T08:48:11.347Z,71.26
2024-03-05T08:50:38.139Z,71.09
2024-03-05T08:53:06.086Z,70.98
2024-03-05T08:55:33.103Z,70.95
2024-03-05T08:58:01.861Z,70.97
2024-03-05T09:00:38.100Z,71.06
2024-03-05T09:03:10.812Z,71.01
2024-03-05T09:05:37.946Z,70.93
2024-03-05T09:08:06.634Z,70.98
2024-03-05T09:10:34.938Z,70.87
2024-03-05T09:13:02.002Z,71.09
2024-03-05T09:15:28.757Z,71.04
2024-03-05T09:17:55.667Z,71.00
2024-03-05T09:20:22.523Z,71.00
2024-03-05T09:22:49.417Z,71.22
2024-03-05T09:25:17.381Z,71.12
2024-03-05T09:27:46.488Z,71.14
2024-03-05T09:30:16.970Z,71.22
2024-03-05T09:32:45.627Z,71.06
2024-03-05T09:35:14.624Z,71.26
2024-03-05T09:37:48.477Z,71.14
2024-03-05T09:40:19.433Z,71.06
2024-03-05T09:42:47.725Z,71.25
2024-03-05T09:45:17.016Z,71.25
2024-03-05T09:47:45.008Z,71.20
2024-03-05T09:50:17.436Z,71.22
2024-03-05T09:52:48.816Z,71.33
2024-03-05T09:55:18.513Z,71.36
2024-03-05T09:57:49.629Z,71.57
2024-03-05T10:00:19.403Z,71.42
2024-03-05T10:02:49.239Z,71.42
2024-03-05T10:05:17.779Z,71.35
2024-03-05T10:07:47.470Z,71.43
2024-03-05T10:10:18.416Z,71.33
2024-03-05T10:12:45.267Z,71.39
2024-03-05T10:15:22.386Z,71.21
2024-03-05T10:17:52.288Z,71.05
2024-03-05T10:20:45.567Z,71.17
2024-03-05T10:23:12.632Z,71.07
2024-03-05T10:25:41.466Z,71.23
2024-03-05T10:28:10.188Z,71.23
2024-03-05T10:30:38.950Z,71.14
2024-03-05T10:33:11.681Z,71.15
2024-03-05T10:35:39.957Z,71.05
2024-03-05T10:38:11.208Z,71.18
2024-03-05T10:40:39.480Z,71.17
2024-03-05T10:43:10.746Z,71.20
2024-03-05T10:45:41.804Z,71.28
2024-03-05T10:48:12.162Z,71.45
2024-03-05T10:50:41.825Z,71.54
2024-03-05T10:53:09.788Z,71.40
2024-03-05T10:55:38.915Z,71.40
2024-03-05T10:58:13.702Z,71.49
2024-03-05T11:00:43.197Z,71.49
2024-03-05T11:03:11.840Z,71.23
2024-03-05T11:05:50.733Z,71.44
2024-03-05T11:08:25.496Z,71.52
2024-03-05T11:11:23.645Z,71.61
2024-03-05T11:13:52.859Z,71.35
2024-03-05T11:16:21.643Z,71.20
2024-03-05T11:18:48.592Z,71.15
2024-03-05T11:21:16.791Z,71.25
2024-03-05T11:23:52.417Z,71.41
2024-03-05T11:26:23.386Z,71.53
2024-03-05T11:28:53.194Z,71.35
2024-03-05T11:31:22.229Z,71.21
2024-03-05T11:34:10.561Z,71.18
2024-03-05T11:36:37.962Z,71.25
2024-03-05T11:39:19.238Z,71.02
2024-03-05T11:41:47.588Z,71.19
2024-03-05T11:44:36.537Z,71.38
2024-03-05T11:47:04.495Z,71.51
2024-03-05T11:49:32.577Z,71.56
2024-03-05T11:51:59.941Z,71.45
2024-03-05T11:54:26.623Z,71.63
2024-03-05T11:56:58.355Z,71.65
2024-03-05T11:59:35.737Z,71.53
2024-03-05T12:02:03.107Z,71.68
2024-03-05T12:04:30.709Z,71.63
2024-03-05T12:07:08.248Z,71.69
2024-03-05T12:09:40.578Z,71.50
2024-03-05T12:12:13.569Z,71.29
2024-03-05T12:14:53.154Z,71.34
2024-03-05T12:17:21.223Z,71.36
2024-03-05T12:20:08.974Z,71.38
2024-03-05T12:22:41.607Z,71.20
2024-03-05T12:25:09.673Z,71.31
2024-03-05T12:27:38.701Z,71.25
2024-03-05T12:30:07.579Z,71.24
2024-03-05T12:32:34.658Z,71.05
2024-03-05T12:35:01.612Z,71.25
2024-03-05T12:37:30.894Z,71.41
2024-03-05T12:40:01.336Z,71.47
2024-03-05T12:42:29.872Z,71.49
2024-03-05T12:45:18.585Z,71.56
2024-03-05T12:48:04.532Z,71.44
2024-03-05T12:50:31.726Z,71.39
2024-03-05T12:53:06.168Z,71.37
2024-03-05T12:55:36.201Z,71.24
2024-03-05T12:58:08.311Z,71.40
2024-03-05T13:00:35.799Z,71.23
2024-03-05T13:03:06.887Z,71.16
2024-03-05T13:05:34.613Z,71.04
2024-03-05T13:08:01.541Z,71.08
2024-03-05T13:10:44.918Z,71.10
2024-03-05T13:13:11.897Z,71.20
2024-03-05T13:15:39.065Z,70.97
2024-03-05T13:18:06.981Z,71.17
2024-03-05T13:20:34.427Z,70.97
2024-03-05T13:23:01.216Z,71.16
2024-03-05T13:25:30.034Z,71.23
2024-03-05T13:27:56.966Z,71.14
2024-03-05T13:30:24.196Z,71.29
2024-03-05T13:32:53.667Z,71.23
2024-03-05T13:35:20.537Z,71.04
2024-03-05T13:37:48.918Z,71.12
2024-03-05T13:40:20.403Z,71.21
2024-03-05T13:42:49.536Z,71.30
2024-03-05T13:45:19.995Z,71.06
2024-03-05T13:47:47.363Z,71.00
2024-03-05T13:50:17.413Z,71.05
2024-03-05T13:52:46.297Z,71.08
2024-03-05T13:55:15.094Z,71.00
2024-03-05T13:57:42.736Z,71.25
2024-03-05T14:00:15.246Z,71.02
2024-03-05T14:02:42.040Z,71.07
2024-03-05T14:05:12.301Z,71.14
2024-03-05T14:07:39.612Z,71.13
2024-03-05T14:10:06.716Z,71.16
2024-03-05T14:12:36.399Z,71.25
2024-03-05T14:15:09.826Z,71.13
2024-03-05T14:17:38.165Z,71.09
2024-03-05T14:20:08.772Z,71.10
2024-03-05T14:22:39.838Z,70.97
2024-03-05T14:25:08.171Z,71.02
2024-03-05T14:27:34.869Z,71.06
2024-03-05T14:30:01.631Z,71.17
2024-03-05T14:32:28.593Z,71.26
2024-03-05T14:34:58.698Z,71.23
2024-03-05T14:37:25.724Z,71.22
2024-03-05T14:39:55.314Z,71.19
2024-03-05T14:42:22.000Z,71.10
2024-03-05T14:44:48.755Z,71.03
2024-03-05T14:47:15.414Z,71.07
2024-03-05T14:49:43.523Z,71.22
2024-03-05T14:52:10.647Z,71.09
2024-03-05T14:54:37.349Z,71.10
2024-03-05T14:57:04.363Z,71.25
2024-03-05T14:59:31.006Z,71.24
2024-03-05T15:01:57.900Z,71.23
2024-03-05T15:04:27.982Z,71.17
2024-03-05T15:06:57.525Z,71.19
2024-03-05T15:09:24.186Z,71.17
2024-03-05T15:11:51.050Z,71.28
2024-03-05T15:14:17.808Z,71.16
2024-03-05T15:16:44.498Z,71.07
2024-03-05T15:19:11.204Z,71.22
2024-03-05T15:21:39.051Z,71.09
2024-03-05T15:24:06.105Z,71.16
2024-03-05T15:26:33.744Z,71.11
2024-03-05T15:29:00.526Z,71.25
2024-03-05T15:31:27.438Z,71.41
2024-03-05T15:33:54.758Z,71.34
2024-03-05T15:36:22.075Z,71.22
2024-03-05T15:38:48.796Z,71.29
2024-03-05T15:41:16.506Z,71.31
2024-03-05T15:43:43.578Z,71.56
2024-03-05T15:46:10.247Z,71.60
2024-03-05T15:48:36.938Z,71.44
2024-03-05T15:51:04.277Z,71.46
2024-03-05T15:53:31.359Z,71.62
2024-03-05T15:56:13.498Z,71.67
2024-03-05T15:58:43.557Z,71.67
2024-03-05T16:01:11.731Z,71.58
2024-03-05T16:03:57.486Z,71.54
2024-03-05T16:06:31.163Z,71.70
2024-03-05T16:08:58.945Z,71.78
2024-03-05T16:11:26.672Z,71.59
2024-03-05T16:13:53.605Z,71.67
2024-03-05T16:16:24.737Z,71.68
2024-03-05T16:18:51.990Z,71.58
2024-03-05T16:21:18.740Z,71.59
2024-03-05T16:23:47.071Z,71.76
2024-03-05T16:26:13.712Z,71.88
2024-03-05T16:28:41.420Z,71.86
2024-03-05T16:31:12.402Z,71.81
2024-03-05T16:33:42.243Z,71.70
2024-03-05T16:36:20.896Z,71.72
2024-03-05T16:38:47.533Z,71.76
2024-03-05T16:41:14.276Z,71.66
2024-03-05T16:43:41.174Z,71.65
2024-03-05T16:46:09.356Z,71.79
2024-03-05T16:48:36.044Z,71.84
2024-03-05T16:51:03.395Z,71.84
2024-03-05T16:53:30.624Z,71.82
2024-03-05T16:55:57.345Z,71.70
2024-03-05T16:58:24.948Z,71.83
2024-03-05T17:00:57.996Z,71.94
2024-03-05T17:03:29.912Z,71.85
2024-03-05T17:05:58.394Z,71.72
2024-03-05T17:08:26.593Z,71.83
2024-03-05T17:10:55.104Z,71.93
2024-03-05T17:13:27.452Z,71.85
2024-03-05T17:15:57.464Z,71.89
2024-03-05T17:18:24.988Z,71.93
2024-03-05T17:20:54.665Z,71.93
2024-03-05T17:23:25.835Z,71.77
2024-03-05T17:25:55.898Z,71.83
2024-03-05T17:28:23.028Z,71.88
2024-03-05T17:30:50.201Z,71.80
2024-03-05T17:33:17.174Z,71.79
2024-03-05T17:35:44.555Z,71.82
2024-03-05T17:38:13.913Z,71.86
2024-03-05T17:40:41.508Z,71.76
2024-03-05T17:43:08.688Z,71.82
2024-03-05T17:45:35.666Z,71.80
2024-03-05T17:48:07.074Z,71.76
2024-03-05T17:50:36.169Z,71.80
2024-03-05T17:53:07.209Z,71.91
2024-03-05T17:55:36.266Z,71.92
2024-03-05T17:58:05.587Z,72.01
2024-03-05T18:00:42.981Z,72.09
2024-03-05T18:03:12.256Z,72.15
2024-03-05T18:05:40.148Z,72.07
2024-03-05T18:08:07.513Z,72.01
2024-03-05T18:10:36.676Z,71.98
2024-03-05T18:13:05.989Z,72.16
2024-03-05T18:15:33.525Z,72.11
2024-03-05T18:18:01.101Z,72.25
2024-03-05T18:20:30.197Z,72.21
2024-03-05T18:23:00.916Z,72.23
2024-03-05T18:25:35.662Z,71.96
2024-03-05T18:28:05.269Z,72.07
2024-03-05T18:30:43.420Z,72.06
2024-03-05T18:33:12.800Z,72.11
2024-03-05T18:35:41.674Z,72.18
2024-03-05T18:40:41.203Z,72.23
2024-03-05T18:43:10.944Z,71.95
2024-03-05T18:45:38.427Z,72.04
2024-03-05T18:48:09.693Z,72.12
2024-03-05T18:50:37.357Z,72.14
2024-03-05T18:53:07.294Z,72.10
2024-03-05T18:55:37.252Z,72.02
2024-03-05T18:58:08.030Z,72.04
2024-03-05T19:00:37.540Z,72.07
2024-03-05T19:03:05.999Z,72.18
2024-03-05T19:05:34.470Z,72.28
2024-03-05T19:08:01.710Z,72.25
2024-03-05T19:10:28.629Z,72.13
2024-03-05T19:12:55.445Z,72.17
2024-03-05T19:15:23.751Z,72.30
2024-03-05T19:17:50.955Z,72.27
2024-03-05T19:20:18.125Z,72.43
2024-03-05T19:22:45.142Z,72.43
2024-03-05T19:25:13.046Z,72.32
2024-03-05T19:27:42.448Z,72.20
2024-03-05T19:30:17.340Z,72.20
2024-03-05T19:32:45.253Z,72.28
2024-03-05T19:35:15.328Z,72.24
2024-03-05T19:37:44.328Z,72.41
2024-03-05T19:40:17.941Z,72.39
2024-03-05T19:42:46.907Z,72.23
2024-03-05T19:45:14.979Z,72.27
2024-03-05T19:47:42.643Z,72.31
2024-03-05T19:50:14.739Z,72.26
2024-03-05T19:52:41.911Z,72.22
2024-03-05T19:55:09.576Z,72.25
2024-03-05T19:57:36.611Z,72.29
2024-03-05T20:00:12.942Z,72.33
2024-03-05T20:02:40.293Z,72.29
2024-03-05T20:05:07.582Z,72.20
2024-03-05T20:07:34.590Z,72.39
2024-03-05T20:10:02.671Z,72.27
2024-03-05T20:12:29.635Z,72.29
2024-03-05T20:14:56.442Z,72.37
2024-03-05T20:17:25.484Z,72.38
2024-03-05T20:19:54.122Z,72.43
2024-03-05T20:22:20.896Z,72.45
2024-03-05T20:24:48.600Z,72.55
2024-03-05T20:27:17.209Z,72.70
2024-03-05T20:29:44.005Z,72.71
2024-03-05T20:32:10.888Z,72.67
2024-03-05T20:34:45.796Z,72.68
2024-03-05T20:37:12.495Z,72.78
2024-03-05T20:39:39.205Z,72.51
2024-03-05T20:42:09.242Z,72.54
2024-03-05T20:44:35.946Z,72.42
2024-03-05T20:47:03.006Z,72.50
2024-03-05T20:49:29.840Z,72.66
2024-03-05T20:51:57.955Z,72.65
2024-03-05T20:54:25.440Z,72.69
2024-03-05T20:56:52.268Z,72.56
2024-03-05T20:59:19.946Z,72.53
2024-03-05T21:01:47.159Z,72.79
2024-03-05T21:04:13.958Z,72.73
2024-03-05T21:06:40.710Z,72.73
2024-03-05T21:09:08.822Z,72.87
2024-03-05T21:11:35.803Z,72.70
2024-03-05T21:14:04.156Z,72.77
2024-03-05T21:16:31.107Z,72.85
2024-03-05T21:18:58.203Z,72.93
2024-03-05T21:21:25.288Z,72.95
2024-03-05T21:23:51.994Z,72.77
2024-03-05T21:26:34.582Z,72.84
2024-03-05T21:29:06.216Z,72.69
2024-03-05T21:31:38.141Z,72.81
2024-03-05T21:34:07.669Z,72.98
2024-03-05T21:36:34.494Z,73.00
2024-03-05T21:39:01.794Z,73.03
2024-03-05T21:41:28.616Z,72.92
2024-03-05T21:43:55.374Z,72.85
2024-03-05T21:46:22.806Z,72.93
2024-03-05T21:48:49.576Z,72.99
2024-03-05T21:51:16.948Z,72.92
2024-03-05T21:53:43.894Z,72.82
2024-03-05T21:56:11.432Z,72.86
2024-03-05T21:58:43.322Z,72.72
2024-03-05T22:01:10.708Z,72.84
2024-03-05T22:03:37.539Z,72.89
2024-03-05T22:06:14.905Z,72.78
2024-03-05T22:08:45.818Z,72.78
2024-03-05T22:11:13.981Z,72.76
2024-03-05T22:13:40.849Z,72.83
2024-03-05T22:16:07.523Z,72.63
2024-03-05T22:18:34.275Z,73.00
2024-03-05T22:21:00.883Z,72.81
2024-03-05T22:23:27.612Z,72.93
2024-03-05T22:25:54.612Z,72.90
2024-03-05T22:28:22.161Z,73.10
2024-03-05T22:30:49.776Z,73.13
2024-03-05T22:33:16.490Z,73.02
2024-03-05T22:35:43.253Z,72.92
2024-03-05T22:38:11.143Z,72.96
2024-03-05T22:40:38.120Z,72.88
2024-03-05T22:43:06.491Z,72.97
2024-03-05T22:45:35.959Z,72.98
2024-03-05T22:48:02.664Z,72.97
2024-03-05T22:50:29.465Z,73.00
2024-03-05T22:52:56.134Z,73.08
2024-03-05T22:55:22.985Z,73.04
2024-03-05T22:57:50.064Z,73.11
2024-03-05T23:00:24.293Z,73.01
2024-03-05T23:02:55.079Z,72.96
2024-03-05T23:05:22.173Z,73.05
2024-03-05T23:07:49.426Z,73.09
2024-03-05T23:10:17.614Z,73.06
2024-03-05T23:12:45.298Z,73.18
2024-03-05T23:15:16.374Z,73.04
2024-03-05T23:17:44.435Z,72.97
2024-03-05T23:20:12.558Z,72.98
2024-03-05T23:22:40.468Z,72.91
2024-03-05T23:25:08.826Z,73.17
2024-03-05T23:27:36.672Z,73.04
2024-03-05T23:30:27.068Z,72.87
2024-03-05T23:32:55.849Z,72.90
2024-03-05T23:35:26.449Z,73.04
2024-03-05T23:37:54.700Z,73.00
2024-03-05T23:40:21.343Z,73.06
2024-03-05T23:42:48.075Z,72.97
2024-03-05T23:45:14.818Z,73.06
2024-03-05T23:47:42.136Z,72.96
2024-03-05T23:50:10.470Z,72.94
2024-03-05T23:52:37.959Z,72.97
2024-03-05T23:55:07.116Z,73.12
2024-03-05T23:57:34.080Z,73.07
